Metar z pełnej godziny Komunikat METAR ze strony awiacja.imgw.pl Metar G00 EPSY METAR EPSY 070000Z VRB01KT 3000 -SN BR OVC002 M00/M00 Q1008 RESN=